KBDL/BDL METAR and TAF weather

Enter ICAO airport designator
Station Type Date Time Source
KBDL METAR 2019/06/26 05:51 UTC NOAA

KBDL 260551Z 00000KT 1/2SM R06/P6000FT BR VV002 22/20 A2992 RMK AO2 SFC VIS 3/4 SLP131 VIS 1/2V1 1/4 T02170200 10228 20217 51009


Station Type Date Time Source
KBDL Decoded METAR 2019/06/26 05:51 UTC NOAA

BRADLEY INTERNATIONAL AIRPORT , CT, United States (KBDL) 41-56N 072-41W 60M
Jun 26, 2019 - 01:51 AM EDT / 2019.06.26 0551 UTC
Wind: Calm:0
Visibility: 1/2 mile(s):0
Sky conditions: obscured
Weather: mist
Temperature: 71.1 F (21.7 C)
Dew Point: 68.0 F (20.0 C)
Relative Humidity: 90%
Pressure (altimeter): 29.92 in. Hg (1013 hPa)
Pressure tendency: 0.03 inches (0.9 hPa) higher than three hours ago
ob: KBDL 260551Z 00000KT 1/2SM R06/P6000FT BR VV002 22/20 A2992 RMK AO2 SFC VIS 3/4 SLP131 VIS 1/2V1 1/4 T02170200 10228 20217 51009
cycle: 6

Station Type Date Time Source
KBDL TAF 2019/06/26 06:40 UTC NOAA

TAF KBDL 260538Z 2606/2712 00000KT 1 1/2SM BR OVC003
TEMPO 2606/2609 1/2SM FG OVC002
FM260900 34003KT 3SM BR SCT010
FM261300 35004KT P6SM FEW250
FM261800 29003KT P6SM FEW070
FM270200 14004KT P6SM VCSH SCT070

Example: see airport list